Time;durP1;ratioP1;P1;durP2;ratioP2;P2;SDS_P1;SDS_P2;PMS_P1;PMS_P2;Temp;Humidity;BMP_temperature;BMP_pressure;BME280_temperature;BME280_humidity;BME280_pressure;Samples;Min_cycle;Max_cycle;Signal;HPM_P1;HPM_P2
2022/06/14 00:02:11;;;;;;;8.35;6.85;;;;;;;19.36;73.92;100295.56;1685712;83;21097;-85
2022/06/14 00:04:38;;;;;;;9.75;8.75;;;;;;;19.33;74.06;100296.72;1719080;82;20975;-85
2022/06/14 00:07:06;;;;;;;12.15;8.63;;;;;;;19.30;74.01;100293.52;1718854;82;21243;-85
2022/06/14 00:09:34;;;;;;;17.00;11.33;;;;;;;19.26;74.00;100298.34;1718993;83;20916;-85
2022/06/14 00:12:04;;;;;;;23.32;14.40;;;;;;;19.22;74.07;100300.97;1718879;83;20853;-86
2022/06/14 00:14:31;;;;;;;17.60;10.82;;;;;;;19.17;74.20;100301.44;1718939;83;20948;-86
2022/06/14 00:16:58;;;;;;;13.35;10.38;;;;;;;19.14;74.54;100301.76;1718850;83;20947;-85
2022/06/14 00:19:25;;;;;;;13.62;9.80;;;;;;;19.10;74.74;100299.06;1718859;82;21247;-86
2022/06/14 00:21:52;;;;;;;16.27;9.63;;;;;;;19.08;74.87;100297.55;1732033;81;20885;-85
2022/06/14 00:24:18;;;;;;;11.50;8.48;;;;;;;19.05;74.89;100297.34;1744788;81;20979;-84
2022/06/14 00:26:44;;;;;;;9.48;7.80;;;;;;;19.00;75.02;100296.48;1744766;81;20885;-85
2022/06/14 00:29:11;;;;;;;10.13;8.53;;;;;;;18.97;75.24;100291.48;1745049;81;20920;-85
2022/06/14 00:31:38;;;;;;;14.87;9.50;;;;;;;18.96;75.43;100298.28;1744894;81;21143;-86
2022/06/14 00:34:06;;;;;;;8.95;8.10;;;;;;;18.94;75.61;100302.44;1744814;81;21501;-85
2022/06/14 00:36:34;;;;;;;12.20;8.90;;;;;;;18.94;75.71;100305.56;1744712;82;20968;-85
2022/06/14 00:39:04;;;;;;;10.13;7.22;;;;;;;18.92;75.61;100296.44;1745104;82;20921;-85
2022/06/14 00:41:51;;;;;;;8.40;7.12;;;;;;;18.89;75.67;100292.75;1744774;82;20873;-85
2022/06/14 00:44:27;;;;;;;12.30;8.40;;;;;;;18.88;75.84;100295.58;1744730;82;21091;-85
2022/06/14 00:47:03;;;;;;;8.98;7.80;;;;;;;18.86;75.82;100300.20;1744720;81;20976;-85
2022/06/14 00:49:43;;;;;;;10.80;6.90;;;;;;;18.84;76.08;100298.52;1744749;80;20932;-85
2022/06/14 00:52:24;;;;;;;10.15;6.17;;;;;;;18.84;75.93;100299.02;1708924;82;20963;-85
2022/06/14 00:54:56;;;;;;;7.95;6.70;;;;;;;18.82;75.84;100298.34;1744854;82;20853;-86
2022/06/14 00:57:29;;;;;;;6.75;6.03;;;;;;;18.80;76.09;100298.98;1744744;82;21128;-85
2022/06/14 01:00:07;;;;;;;7.62;6.53;;;;;;;18.79;76.14;100296.00;1759494;81;20956;-85
2022/06/14 01:02:40;;;;;;;7.53;6.83;;;;;;;18.77;76.29;100292.62;1744758;81;20980;-85
2022/06/14 01:05:10;;;;;;;7.50;6.53;;;;;;;18.75;76.08;100292.77;1744723;82;21522;-85
2022/06/14 01:07:42;;;;;;;8.08;7.20;;;;;;;18.73;75.79;100296.58;1744751;80;20948;-85
2022/06/14 01:10:22;;;;;;;8.83;7.92;;;;;;;18.69;75.79;100293.88;1744730;81;21162;-85
2022/06/14 01:12:50;;;;;;;8.18;6.83;;;;;;;18.66;75.82;100301.66;1744510;81;20963;-85
2022/06/14 01:15:20;;;;;;;8.00;6.55;;;;;;;18.62;76.09;100296.31;1744843;82;20944;-85
2022/06/14 01:17:52;;;;;;;8.23;6.75;;;;;;;18.58;76.20;100297.59;1744798;81;20905;-85
2022/06/14 01:20:21;;;;;;;7.37;6.55;;;;;;;18.55;76.34;100293.92;1744818;81;20937;-85
2022/06/14 01:22:48;;;;;;;7.15;6.28;;;;;;;18.53;76.41;100306.52;1754760;81;21724;-85
2022/06/14 01:25:15;;;;;;;7.42;5.62;;;;;;;18.53;76.58;100302.53;1766230;81;20849;-85
2022/06/14 01:27:41;;;;;;;8.00;6.15;;;;;;;18.53;76.56;100310.00;1757979;81;20928;-85
2022/06/14 01:30:15;;;;;;;6.55;5.78;;;;;;;18.51;76.65;100310.64;1758141;80;20975;-86
2022/06/14 01:32:52;;;;;;;9.93;6.27;;;;;;;18.49;76.72;100305.15;1758473;81;21517;-86
2022/06/14 01:35:23;;;;;;;8.28;6.15;;;;;;;18.48;76.68;100297.68;1758048;80;21269;-85
2022/06/14 01:37:52;;;;;;;7.53;6.53;;;;;;;18.46;76.78;100295.67;1721518;83;20958;-85
2022/06/14 01:40:23;;;;;;;7.47;6.60;;;;;;;18.46;76.83;100297.00;1722208;82;20880;-84
2022/06/14 01:43:16;;;;;;;7.12;6.50;;;;;;;18.44;76.75;100294.48;1722123;82;20963;-86
2022/06/14 01:46:06;;;;;;;6.72;6.12;;;;;;;18.43;76.60;100294.16;1722099;83;20864;-86
2022/06/14 01:51:50;;;;;;;7.25;6.55;;;;;;;18.38;76.78;100292.92;1721990;83;21267;-84
2022/06/14 01:51:51;;;;;;;8.25;6.15;;;;;;;18.36;76.82;100296.22;1719631;83;20907;-85
2022/06/14 01:54:42;;;;;;;7.35;6.60;;;;;;;18.32;77.04;100297.03;1722124;82;20923;-85
2022/06/14 01:57:23;;;;;;;6.35;5.85;;;;;;;18.29;77.27;100301.80;1709725;83;21524;-85
2022/06/14 02:00:11;;;;;;;7.55;6.10;;;;;;;18.26;77.74;100297.63;1721827;83;20837;-84
2022/06/14 02:06:22;;;;;;;8.18;7.37;;;;;;;18.30;77.94;100290.20;1722042;83;20874;-85
2022/06/14 02:09:05;;;;;;;7.42;6.42;;;;;;;18.34;78.08;100291.55;1722123;83;21002;-85
2022/06/14 02:11:33;;;;;;;7.40;6.70;;;;;;;18.36;77.86;100290.44;1720888;83;20935;-85
2022/06/14 02:14:47;;;;;;;10.05;9.10;;;;;;;18.37;77.82;100291.27;1722437;83;20947;-85
2022/06/14 02:17:26;;;;;;;7.53;6.83;;;;;;;18.37;77.78;100289.94;1722017;82;21350;-85
2022/06/14 02:20:16;;;;;;;8.25;7.45;;;;;;;18.36;77.61;100286.45;1722374;82;20840;-85
2022/06/14 02:22:50;;;;;;;7.70;6.95;;;;;;;18.35;77.49;100286.59;1714662;83;20939;-85
2022/06/14 02:25:21;;;;;;;8.03;7.33;;;;;;;18.33;77.45;100283.25;1711625;83;20999;-85
2022/06/14 02:27:57;;;;;;;11.78;7.78;;;;;;;18.33;77.60;100284.58;1709116;84;20972;-85
2022/06/14 02:30:28;;;;;;;11.50;7.67;;;;;;;18.33;77.59;100286.73;1709007;84;21261;-84
2022/06/14 02:33:24;;;;;;;10.28;6.83;;;;;;;18.34;77.70;100282.26;1708971;84;21378;-85
2022/06/14 02:35:57;;;;;;;10.38;6.80;;;;;;;18.34;77.70;100283.58;1744671;81;20917;-86
2022/06/14 02:38:37;;;;;;;10.90;7.87;;;;;;;18.35;77.74;100287.92;1688054;84;20940;-86
2022/06/14 02:41:12;;;;;;;9.48;7.08;;;;;;;18.35;77.90;100287.42;1708814;84;20884;-84
2022/06/14 02:44:09;;;;;;;13.72;8.18;;;;;;;18.37;78.03;100290.77;1708238;83;21909;-84
2022/06/14 02:47:04;;;;;;;13.20;8.38;;;;;;;18.40;78.05;100294.44;1708549;82;20925;-85
2022/06/14 02:49:49;;;;;;;9.48;7.20;;;;;;;18.41;78.06;100288.16;1709110;84;21346;-85
2022/06/14 02:52:27;;;;;;;9.80;8.00;;;;;;;18.45;78.39;100301.95;1709042;83;21505;-86
2022/06/14 02:55:07;;;;;;;15.45;7.12;;;;;;;18.49;78.34;100302.49;1744986;81;20877;-85
2022/06/14 02:57:48;;;;;;;13.90;7.78;;;;;;;18.52;78.19;100291.55;1709114;83;21255;-86
2022/06/14 03:00:20;;;;;;;11.40;8.15;;;;;;;18.55;78.12;100301.89;1708962;84;21022;-85
2022/06/14 03:03:11;;;;;;;7.92;7.12;;;;;;;18.58;78.07;100296.27;1709150;82;20939;-86
2022/06/14 03:06:06;;;;;;;9.33;8.45;;;;;;;18.62;78.10;100297.64;1744988;81;20936;-87
2022/06/14 03:08:55;;;;;;;11.68;8.95;;;;;;;18.66;77.99;100302.16;1745085;81;20936;-85
2022/06/14 03:11:46;;;;;;;9.25;8.35;;;;;;;18.70;77.96;100303.50;1744977;82;21095;-85
2022/06/14 03:14:50;;;;;;;10.38;7.42;;;;;;;18.74;78.02;100295.11;1709148;82;20888;-87
2022/06/14 03:17:51;;;;;;;8.95;7.40;;;;;;;18.81;78.31;100298.84;1709161;84;21433;-86
2022/06/14 03:20:31;;;;;;;9.85;8.05;;;;;;;18.89;78.59;100296.73;1703760;84;20997;-86
2022/06/14 03:23:09;;;;;;;13.18;7.83;;;;;;;18.97;78.78;100300.79;1671719;85;20984;-86
2022/06/14 03:25:50;;;;;;;11.28;8.05;;;;;;;19.04;78.90;100303.66;1676481;85;21192;-85
2022/06/14 03:28:28;;;;;;;10.28;7.58;;;;;;;19.14;78.92;100304.89;1676708;85;20984;-86
2022/06/14 03:31:08;;;;;;;8.73;6.97;;;;;;;19.22;78.88;100301.80;1671568;85;20941;-86
2022/06/14 03:33:49;;;;;;;11.60;7.17;;;;;;;19.31;78.79;100299.20;1676593;85;21002;-86
2022/06/14 03:36:16;;;;;;;8.90;7.15;;;;;;;19.42;78.83;100305.08;1666837;85;21031;-86
2022/06/14 03:38:59;;;;;;;11.12;6.58;;;;;;;19.53;78.65;100304.48;1676895;85;21968;-87
2022/06/14 03:41:30;;;;;;;10.00;6.78;;;;;;;19.62;78.50;100307.02;1678412;85;20992;-87
2022/06/14 03:43:58;;;;;;;8.10;7.17;;;;;;;19.74;78.06;100307.59;1678762;85;21020;-86
2022/06/14 03:46:42;;;;;;;10.08;7.65;;;;;;;19.85;77.88;100300.69;1678023;85;20968;-85
2022/06/14 03:49:16;;;;;;;13.72;6.87;;;;;;;19.96;77.27;100301.37;1677605;85;21015;-86
2022/06/14 03:52:00;;;;;;;6.53;5.92;;;;;;;20.10;77.29;100299.44;1690299;84;21115;-86
2022/06/14 03:54:52;;;;;;;15.85;7.97;;;;;;;20.22;77.03;100297.30;1696455;82;21019;-87
2022/06/14 03:57:37;;;;;;;17.32;7.80;;;;;;;20.35;76.66;100296.33;1696441;81;21157;-86
2022/06/14 04:00:49;;;;;;;23.52;9.20;;;;;;;20.52;76.39;100297.67;1696285;81;20949;-86
2022/06/14 04:03:47;;;;;;;15.32;7.47;;;;;;;;;;1696390;83;20930;-87
2022/06/14 04:06:50;;;;;;;11.60;6.75;;;;;;;20.85;73.99;100295.89;1695102;84;21111;-87
2022/06/14 04:09:34;;;;;;;22.13;7.28;;;;;;;21.09;71.37;100295.88;1694728;84;20953;-86
2022/06/14 04:12:42;;;;;;;14.50;7.40;;;;;;;21.48;70.11;100299.69;1694182;84;20941;-86
2022/06/14 04:15:41;;;;;;;13.78;8.45;;;;;;;22.05;68.51;100297.28;1695738;84;21411;-84
2022/06/14 04:18:38;;;;;;;19.98;7.45;;;;;;;22.87;65.14;100306.13;1695903;84;20938;-85
2022/06/14 04:21:22;;;;;;;12.80;6.85;;;;;;;23.73;62.79;100303.95;1694836;84;21210;-87
2022/06/14 04:23:58;;;;;;;12.65;6.42;;;;;;;24.55;60.03;100303.72;1697884;84;20953;-87
2022/06/14 04:26:39;;;;;;;12.07;6.53;;;;;;;25.29;57.73;100301.67;1699459;84;20993;-86
2022/06/14 04:29:22;;;;;;;10.10;5.87;;;;;;;25.92;55.15;100303.78;1699478;84;20996;-86
2022/06/14 04:32:00;;;;;;;18.37;7.00;;;;;;;26.53;53.43;100300.25;1699361;84;21000;-86
2022/06/14 04:34:42;;;;;;;10.75;5.42;;;;;;;27.09;52.52;100299.88;1699392;84;20913;-86
2022/06/14 04:37:29;;;;;;;12.13;5.08;;;;;;;27.65;50.47;100303.11;1699515;84;20914;-87
2022/06/14 04:40:16;;;;;;;10.63;5.67;;;;;;;28.14;49.23;100300.34;1698205;83;21037;-88
2022/06/14 04:42:48;;;;;;;12.70;5.70;;;;;;;28.68;49.25;100296.81;1699603;84;21332;-86
2022/06/14 04:45:19;;;;;;;;;;;;;;;29.16;47.65;100295.42;1702168;84;20972;-88
2022/06/14 04:48:13;;;;;;;9.25;4.80;;;;;;;29.57;46.15;100303.40;1700289;84;21264;-85
2022/06/14 04:50:45;;;;;;;10.88;5.72;;;;;;;29.93;45.20;100295.84;1700871;84;20945;-86
2022/06/14 04:53:19;;;;;;;9.25;4.58;;;;;;;30.38;43.98;100300.86;1699685;84;20925;-88
2022/06/14 04:55:57;;;;;;;14.40;4.75;;;;;;;30.73;43.39;100294.72;1699191;84;21024;-87
2022/06/14 04:58:38;;;;;;;8.50;5.10;;;;;;;31.07;42.57;100293.64;1699407;84;20842;-89
2022/06/14 05:01:13;;;;;;;6.47;4.80;;;;;;;31.43;41.02;100290.41;1688300;84;21275;-88
2022/06/14 05:03:47;;;;;;;6.85;3.60;;;;;;;31.73;39.23;100296.48;1684376;84;20953;-88
2022/06/14 05:06:21;;;;;;;4.62;4.15;;;;;;;32.00;37.75;100298.66;1699490;84;20862;-88
2022/06/14 05:08:58;;;;;;;6.17;4.28;;;;;;;32.25;37.20;100294.78;1699500;84;20913;-88
2022/06/14 05:11:32;;;;;;;5.78;2.85;;;;;;;32.53;37.62;100296.67;1699363;84;20930;-86
2022/06/14 05:14:17;;;;;;;7.33;3.27;;;;;;;32.84;36.32;100289.85;1699279;84;20973;-86
2022/06/14 05:16:58;;;;;;;4.08;2.70;;;;;;;33.06;36.13;100289.91;1699179;84;20866;-87
2022/06/14 05:19:45;;;;;;;3.10;2.80;;;;;;;33.36;35.26;100295.52;1699698;84;20988;-87
2022/06/14 05:22:37;;;;;;;5.70;2.50;;;;;;;33.64;34.66;100295.92;1699186;84;20921;-89
2022/06/14 05:25:05;;;;;;;7.55;3.22;;;;;;;33.93;34.91;100295.17;1699344;84;20890;-86
2022/06/14 05:27:58;;;;;;;6.35;2.60;;;;;;;34.25;34.25;100297.16;1699555;84;21300;-88
2022/06/14 05:30:48;;;;;;;15.32;3.00;;;;;;;34.50;34.10;100299.84;1669424;84;20976;-87
2022/06/14 05:33:46;;;;;;;8.00;2.92;;;;;;;34.81;33.93;100298.22;1696164;84;20909;-88
2022/06/14 05:36:22;;;;;;;6.37;2.72;;;;;;;35.06;34.08;100301.14;1699455;84;20898;-87
2022/06/14 05:39:03;;;;;;;5.28;2.60;;;;;;;35.27;33.07;100291.19;1699743;84;21550;-87
2022/06/14 05:41:46;;;;;;;4.12;3.27;;;;;;;35.50;32.62;100302.75;1699373;84;21283;-87
2022/06/14 05:44:35;;;;;;;4.50;2.52;;;;;;;35.76;32.39;100296.08;1699078;84;20850;-88
2022/06/14 05:47:08;;;;;;;5.28;2.65;;;;;;;36.03;32.07;100293.15;1699530;84;20940;-86
2022/06/14 05:49:37;;;;;;;3.67;2.60;;;;;;;36.27;31.87;100297.59;1699596;84;21028;-86
2022/06/14 05:52:33;;;;;;;6.35;3.17;;;;;;;36.48;30.91;100294.33;1699979;84;20933;-87
2022/06/14 05:55:05;;;;;;;6.83;3.08;;;;;;;36.68;30.40;100297.08;1699590;84;22364;-86
2022/06/14 05:57:45;;;;;;;7.30;3.70;;;;;;;36.91;29.46;100298.44;1699630;84;20937;-86
2022/06/14 06:00:16;;;;;;;6.42;3.30;;;;;;;37.08;29.60;100292.68;1699574;84;20905;-87
2022/06/14 06:03:06;;;;;;;4.08;2.77;;;;;;;37.28;29.09;100292.37;1699509;84;20890;-87
2022/06/14 06:05:47;;;;;;;6.60;3.60;;;;;;;37.46;27.72;100290.38;1699890;84;21007;-86
2022/06/14 06:08:40;;;;;;;4.50;2.83;;;;;;;37.66;27.77;100297.71;1699623;84;21174;-86
2022/06/14 06:11:13;;;;;;;;;;;;;;;37.86;27.81;100304.19;1701957;84;20953;-85
2022/06/14 06:13:42;;;;;;;;;;;;;;;38.04;27.68;100304.96;1702177;84;20101;-86
2022/06/14 06:16:16;;;;;;;3.50;2.90;;;;;;;38.15;27.45;100298.31;1699413;84;20086;-87
2022/06/14 06:18:55;;;;;;;5.03;3.12;;;;;;;38.25;27.16;100296.61;1699693;84;20925;-87
2022/06/14 06:21:47;;;;;;;6.53;4.00;;;;;;;38.39;27.31;100292.09;1699422;84;21162;-89
2022/06/14 06:24:31;;;;;;;5.65;2.20;;;;;;;38.57;26.33;100300.20;1698682;84;21410;-88
2022/06/14 06:27:06;;;;;;;3.72;2.77;;;;;;;38.64;26.68;100299.88;1700019;84;20985;-90
2022/06/14 06:29:44;;;;;;;6.35;2.52;;;;;;;38.73;26.65;100303.09;1699810;84;21352;-87
2022/06/14 06:32:11;;;;;;;3.92;2.37;;;;;;;38.87;26.43;100303.80;1699426;84;21047;-89
2022/06/14 06:34:38;;;;;;;9.55;2.72;;;;;;;38.98;26.39;100298.50;1699812;84;21877;-88
2022/06/14 06:37:19;;;;;;;2.65;2.30;;;;;;;39.10;25.85;100303.02;1699843;84;20937;-88
2022/06/14 06:39:55;;;;;;;5.10;2.47;;;;;;;39.18;25.81;100305.14;1699900;84;20930;-88
2022/06/14 06:42:50;;;;;;;4.12;2.33;;;;;;;39.30;25.62;100293.74;1700109;84;20918;-88
2022/06/14 06:45:34;;;;;;;3.55;1.95;;;;;;;39.44;25.22;100300.73;1700101;84;21502;-88
2022/06/14 06:48:26;;;;;;;2.42;1.98;;;;;;;39.55;25.41;100295.94;1699713;84;21161;-88
2022/06/14 06:50:56;;;;;;;6.33;3.98;;;;;;;39.64;25.25;100293.36;1699360;84;21411;-90
2022/06/14 06:53:25;;;;;;;6.05;1.98;;;;;;;39.77;24.70;100302.25;1699435;84;20921;-88
2022/06/14 06:55:59;;;;;;;2.70;1.67;;;;;;;39.89;24.02;100301.83;1699605;84;20957;-88
2022/06/14 06:58:38;;;;;;;1.87;1.77;;;;;;;40.00;23.84;100296.48;1699696;84;20936;-87
2022/06/14 07:01:23;;;;;;;3.65;1.82;;;;;;;40.11;24.15;100298.49;1699599;84;21155;-87
2022/06/14 07:04:17;;;;;;;3.52;2.30;;;;;;;40.24;24.57;100298.30;1699651;84;20902;-88
2022/06/14 07:06:53;;;;;;;3.95;2.08;;;;;;;40.40;24.32;100301.12;1699460;84;20941;-88
2022/06/14 07:09:34;;;;;;;3.22;1.67;;;;;;;40.56;23.92;100305.80;1699140;84;20909;-87
2022/06/14 07:12:08;;;;;;;2.77;2.10;;;;;;;40.67;23.42;100306.45;1698214;84;21008;-87
2022/06/14 07:14:47;;;;;;;2.85;2.00;;;;;;;40.75;23.06;100299.70;1699410;84;21330;-87
2022/06/14 07:17:37;;;;;;;3.80;2.40;;;;;;;40.87;23.07;100298.39;1670999;84;21387;-86
2022/06/14 07:20:29;;;;;;;3.40;2.00;;;;;;;41.01;23.27;100295.92;1699380;84;21455;-86
2022/06/14 07:23:37;;;;;;;2.80;2.08;;;;;;;41.10;23.01;100303.48;1699322;84;20973;-87
2022/06/14 07:26:25;;;;;;;6.22;2.08;;;;;;;41.12;22.72;100300.67;1690277;85;20844;-87
2022/06/14 07:29:07;;;;;;;4.85;2.08;;;;;;;41.25;23.08;100306.53;1692049;84;21143;-87
2022/06/14 07:32:23;;;;;;;4.93;2.60;;;;;;;41.31;23.27;100305.29;1692245;84;20916;-86
2022/06/14 07:34:50;;;;;;;4.35;2.15;;;;;;;41.36;23.10;100305.20;1691818;84;20959;-86
2022/06/14 07:37:43;;;;;;;3.95;1.98;;;;;;;41.47;22.91;100308.54;1692034;84;20939;-87
2022/06/14 07:40:23;;;;;;;5.33;2.50;;;;;;;41.57;22.49;100302.86;1692046;84;20991;-87
2022/06/14 07:43:11;;;;;;;2.72;1.95;;;;;;;41.69;22.32;100300.41;1691652;84;21114;-86
2022/06/14 07:45:45;;;;;;;9.58;2.45;;;;;;;41.72;22.13;100304.48;1691627;84;20943;-87
2022/06/14 07:48:35;;;;;;;2.22;2.12;;;;;;;41.82;21.68;100300.09;1691845;84;20999;-86
2022/06/14 07:51:12;;;;;;;2.67;2.47;;;;;;;41.91;21.14;100298.27;1691481;84;20931;-88
2022/06/14 07:54:21;;;;;;;3.22;2.08;;;;;;;41.95;20.88;100297.06;1687108;85;20892;-86
2022/06/14 07:56:54;;;;;;;6.80;2.20;;;;;;;41.95;20.46;100302.00;1689824;85;21357;-87
2022/06/14 07:59:32;;;;;;;1.98;1.60;;;;;;;41.92;20.17;100301.27;1691618;84;20979;-86
2022/06/14 08:02:09;;;;;;;2.60;2.30;;;;;;;41.97;19.67;100304.45;1691770;83;21062;-88
2022/06/14 08:04:48;;;;;;;7.20;1.92;;;;;;;41.97;19.93;100297.57;1691669;83;20975;-86
2022/06/14 08:07:17;;;;;;;4.17;2.15;;;;;;;41.94;19.97;100299.58;1691938;84;21374;-88
2022/06/14 08:10:11;;;;;;;5.70;2.15;;;;;;;41.79;19.52;100297.98;1691917;84;21168;-87
2022/06/14 08:12:52;;;;;;;3.60;1.70;;;;;;;41.49;19.77;100297.50;1692037;84;21472;-88
2022/06/14 08:15:24;;;;;;;1.90;1.80;;;;;;;40.94;20.45;100288.64;1692109;83;20983;-89
2022/06/14 08:18:24;;;;;;;2.75;2.17;;;;;;;40.26;21.35;100291.39;1691910;84;20987;-87
2022/06/14 08:21:28;;;;;;;4.55;1.92;;;;;;;39.85;21.50;100294.77;1691906;83;20887;-88
2022/06/14 08:24:21;;;;;;;15.13;2.80;;;;;;;39.67;21.68;100288.11;1695122;84;21162;-88
2022/06/14 08:26:56;;;;;;;5.20;1.82;;;;;;;39.82;22.10;100291.75;1722153;83;20987;-86
2022/06/14 08:29:30;;;;;;;4.50;1.77;;;;;;;40.05;21.57;100282.66;1722466;83;20931;-88
2022/06/14 08:32:15;;;;;;;2.80;2.08;;;;;;;40.27;21.74;100276.58;1722100;82;20931;-88
2022/06/14 08:35:16;;;;;;;2.05;1.37;;;;;;;40.45;21.96;100274.91;1722213;82;20883;-89
2022/06/14 08:37:47;;;;;;;2.70;1.90;;;;;;;40.49;20.00;100267.70;1722193;83;21800;-87
2022/06/14 08:40:31;;;;;;;4.05;2.02;;;;;;;40.45;20.06;100266.66;1722756;83;20908;-87
2022/06/14 08:43:02;;;;;;;1.80;1.67;;;;;;;40.46;20.89;100260.04;1722406;82;20966;-86
2022/06/14 08:45:47;;;;;;;2.33;1.92;;;;;;;40.65;20.35;100257.25;1722570;83;20887;-86
2022/06/14 08:49:02;;;;;;;5.53;5.03;;;;;;;40.83;20.83;100254.77;1723593;83;20884;-84
2022/06/14 08:51:52;;;;;;;2.02;1.50;;;;;;;40.89;20.36;100254.89;1722755;83;21145;-85
2022/06/14 08:54:31;;;;;;;4.37;1.75;;;;;;;40.89;20.49;100249.39;1722213;83;20911;-87
2022/06/14 08:57:22;;;;;;;1.80;1.70;;;;;;;40.61;20.75;100242.47;1722217;83;20979;-87
2022/06/14 09:00:09;;;;;;;4.87;1.90;;;;;;;40.35;21.02;100242.90;1722179;83;21481;-86
2022/06/14 09:03:10;;;;;;;2.22;1.90;;;;;;;40.17;21.42;100240.42;1722635;83;20927;-86
2022/06/14 09:06:04;;;;;;;3.25;2.98;;;;;;;40.23;21.65;100239.80;1722284;82;20951;-87
2022/06/14 09:08:54;;;;;;;4.10;2.52;;;;;;;40.50;21.97;100247.89;1722381;83;20927;-86
2022/06/14 09:12:07;;;;;;;10.43;8.18;;;;;;;40.59;21.94;100246.88;1722425;81;20978;-86
2022/06/14 09:14:53;;;;;;;;;;;;;;;40.65;22.31;100248.19;1723012;83;20895;-86
2022/06/14 09:17:45;;;;;;;3.15;2.65;;;;;;;40.32;21.86;100249.58;1665170;85;20103;-87
2022/06/14 09:20:42;;;;;;;8.75;2.37;;;;;;;39.79;22.22;100249.23;1630176;88;21850;-88
2022/06/14 09:23:18;;;;;;;4.03;1.90;;;;;;;39.13;23.29;100257.72;1593052;88;21531;-87
2022/06/14 09:26:11;;;;;;;3.10;2.60;;;;;;;38.37;23.78;100251.84;1625672;88;21368;-86
2022/06/14 09:29:18;;;;;;;16.70;3.75;;;;;;;37.84;23.89;100268.06;1624888;87;20979;-87
2022/06/14 09:32:01;;;;;;;16.32;3.42;;;;;;;37.16;24.71;100265.34;1625064;87;21528;-86
2022/06/14 09:34:45;;;;;;;9.73;3.35;;;;;;;36.25;26.69;100280.66;1624878;88;21291;-86
2022/06/14 09:40:11;;;;;;;3.05;2.80;;;;;;;34.43;31.15;100300.05;1798098;79;22683;-87
2022/06/14 09:43:10;;;;;;;4.50;3.20;;;;;;;33.60;31.60;100306.47;1758681;80;20929;-86
2022/06/14 09:46:18;;;;;;;6.60;2.90;;;;;;;32.73;32.46;100310.59;1758666;80;21265;-87
2022/06/14 09:49:26;;;;;;;6.08;2.77;;;;;;;31.99;32.97;100309.20;1758772;80;21070;-88
2022/06/14 09:52:10;;;;;;;3.33;2.45;;;;;;;31.17;34.19;100320.95;1758607;80;21523;-87
2022/06/14 09:54:57;;;;;;;5.53;2.42;;;;;;;30.45;34.04;100327.83;1758777;81;20897;-87
2022/06/14 09:58:02;;;;;;;5.47;2.62;;;;;;;29.95;34.86;100318.89;1741577;80;20940;-87
2022/06/14 10:00:58;;;;;;;4.95;3.00;;;;;;;29.52;37.71;100311.64;1758740;80;21724;-86
2022/06/14 10:03:55;;;;;;;4.12;2.92;;;;;;;29.09;35.64;100294.95;1758221;81;20921;-86
2022/06/14 10:06:48;;;;;;;6.58;3.02;;;;;;;28.78;40.74;100297.69;1758520;80;21014;-87
2022/06/14 10:09:46;;;;;;;5.12;3.62;;;;;;;28.44;41.66;100287.11;1758295;80;20924;-88
2022/06/14 10:12:32;;;;;;;6.87;4.03;;;;;;;28.17;42.13;100278.36;1758515;80;21433;-87
2022/06/14 10:15:11;;;;;;;5.33;3.27;;;;;;;28.02;44.10;100286.73;1758331;80;21146;-88
2022/06/14 10:18:05;;;;;;;4.83;3.30;;;;;;;27.93;44.31;100281.81;1758407;80;20916;-87
2022/06/14 10:20:38;;;;;;;;;;;;;;;27.86;43.64;100279.97;1761191;80;21339;-87
2022/06/14 10:23:20;;;;;;;5.53;4.10;;;;;;;27.84;43.82;100279.84;1758979;80;20104;-87
2022/06/14 10:29:25;;;;;;;3.98;3.37;;;;;;;27.90;41.43;100278.50;1750381;80;21921;-85
2022/06/14 10:32:12;;;;;;;7.72;3.70;;;;;;;28.01;40.33;100283.70;1759286;80;21009;-85
2022/06/14 10:35:21;;;;;;;6.10;3.42;;;;;;;28.08;39.68;100283.18;1758914;80;21366;-84
2022/06/14 10:38:10;;;;;;;5.28;3.70;;;;;;;28.13;39.64;100276.31;1758306;80;20928;-87
2022/06/14 10:41:04;;;;;;;6.95;3.98;;;;;;;28.27;40.74;100264.39;1758832;81;20900;-87
2022/06/14 10:43:56;;;;;;;10.98;6.12;;;;;;;28.43;39.07;100262.51;1759002;81;21821;-88
2022/06/14 10:46:35;;;;;;;16.15;8.00;;;;;;;28.64;38.95;100253.27;1759147;81;20948;-86
2022/06/14 10:49:13;;;;;;;20.15;11.60;;;;;;;28.88;38.69;100253.46;1759083;81;21319;-86
2022/06/14 10:52:08;;;;;;;14.95;9.50;;;;;;;29.13;38.65;100246.20;1758338;81;20927;-87
2022/06/14 10:54:52;;;;;;;13.45;8.08;;;;;;;29.56;39.53;100247.17;1758429;81;20944;-87
2022/06/14 10:57:38;;;;;;;16.85;9.28;;;;;;;30.17;39.81;100238.61;1758127;81;21092;-88
2022/06/14 11:00:25;;;;;;;9.45;6.50;;;;;;;30.86;38.81;100234.95;1758450;80;21037;-87
2022/06/14 11:03:25;;;;;;;5.53;4.15;;;;;;;31.63;39.56;100234.44;1758468;81;20900;-88
2022/06/14 11:06:12;;;;;;;3.37;2.92;;;;;;;32.33;39.09;100227.90;1758548;80;20892;-87
2022/06/14 11:09:02;;;;;;;5.53;2.35;;;;;;;33.01;34.89;100221.89;1758079;81;20868;-88
2022/06/14 11:12:00;;;;;;;3.95;2.70;;;;;;;33.56;32.30;100220.19;1758756;81;21262;-86
2022/06/14 11:14:44;;;;;;;3.30;2.58;;;;;;;34.11;32.29;100218.38;1748077;81;21528;-88
2022/06/14 11:17:53;;;;;;;5.40;2.87;;;;;;;34.60;33.03;100210.05;1758262;81;21007;-87
2022/06/14 11:20:40;;;;;;;4.47;2.42;;;;;;;34.94;31.29;100208.38;1758225;81;20955;-87
2022/06/14 11:23:26;;;;;;;3.37;2.98;;;;;;;35.26;32.49;100200.95;1758319;80;21437;-87
2022/06/14 11:26:13;;;;;;;3.87;3.27;;;;;;;35.50;31.39;100201.83;1758328;81;21209;-88
2022/06/14 11:29:05;;;;;;;3.00;2.52;;;;;;;35.68;30.47;100197.81;1737270;80;20884;-86
2022/06/14 11:31:38;;;;;;;3.65;2.67;;;;;;;35.83;29.63;100191.02;1758412;80;20885;-87
2022/06/14 11:34:59;;;;;;;4.42;3.10;;;;;;;35.89;29.35;100187.77;1755930;81;20996;-87
2022/06/14 11:37:37;;;;;;;3.58;2.70;;;;;;;35.86;28.67;100181.47;1758472;80;20937;-87
2022/06/14 11:40:23;;;;;;;5.17;2.77;;;;;;;35.77;27.59;100174.91;1758157;80;21872;-86
2022/06/14 11:43:08;;;;;;;3.33;2.67;;;;;;;35.70;27.45;100176.54;1758135;81;21398;-87
2022/06/14 11:45:58;;;;;;;2.60;2.40;;;;;;;35.57;26.57;100167.48;1758372;81;20925;-85
2022/06/14 11:48:52;;;;;;;3.40;2.75;;;;;;;35.49;27.55;100164.20;1758648;81;20952;-89
2022/06/14 11:51:37;;;;;;;4.95;2.92;;;;;;;35.40;28.15;100163.64;1758526;81;20920;-88
2022/06/14 11:54:25;;;;;;;2.95;2.72;;;;;;;35.25;28.22;100167.13;1758668;81;21504;-90
2022/06/14 11:57:29;;;;;;;19.07;17.05;;;;;;;35.11;28.86;100162.69;1758558;81;21402;-87
2022/06/14 12:00:11;;;;;;;40.70;36.68;;;;;;;34.95;29.51;100165.89;1741818;81;20939;-88
2022/06/14 12:02:56;;;;;;;8.70;6.12;;;;;;;34.81;29.21;100171.52;1758402;81;20861;-90
2022/06/14 12:06:00;;;;;;;9.43;5.12;;;;;;;34.67;29.63;100170.62;1758276;81;20920;-87
2022/06/14 12:08:52;;;;;;;7.08;4.60;;;;;;;34.55;29.79;100166.42;1758598;81;21132;-89
2022/06/14 12:11:32;;;;;;;4.80;3.90;;;;;;;34.34;28.85;100170.37;1758438;81;20924;-89
2022/06/14 12:14:16;;;;;;;7.15;4.15;;;;;;;34.21;28.68;100159.92;1758542;81;21612;-88
2022/06/14 12:16:49;;;;;;;7.15;3.90;;;;;;;34.16;29.23;100166.15;1757869;81;21402;-89
2022/06/14 12:19:28;;;;;;;21.70;18.10;;;;;;;34.10;29.62;100155.45;1758698;81;21394;-89
2022/06/14 12:22:26;;;;;;;5.90;4.80;;;;;;;34.01;30.10;100164.62;1758595;81;21504;-88
2022/06/14 12:27:21;;;;;;;10.28;9.30;;;;;;;33.80;29.47;100155.47;1758518;81;21401;-88
2022/06/14 12:29:51;;;;;;;5.22;4.83;;;;;;;33.68;28.43;100161.05;1758660;80;20909;-87
2022/06/14 12:32:29;;;;;;;7.20;3.12;;;;;;;33.54;29.04;100163.32;1758375;80;20928;-87
2022/06/14 12:35:05;;;;;;;5.58;2.98;;;;;;;33.40;28.38;100156.66;1758265;81;21095;-88
2022/06/14 12:37:48;;;;;;;4.92;3.20;;;;;;;33.27;28.55;100155.14;1758380;81;20908;-88
2022/06/14 12:40:39;;;;;;;3.47;2.58;;;;;;;33.11;28.03;100157.41;1747937;80;20933;-89
2022/06/14 12:43:24;;;;;;;3.05;2.30;;;;;;;32.91;27.40;100154.67;1744953;81;20972;-87
2022/06/14 12:46:01;;;;;;;4.42;4.05;;;;;;;32.70;28.00;100156.81;1744979;81;20854;-90
2022/06/14 12:48:39;;;;;;;2.33;2.22;;;;;;;32.51;28.39;100150.27;1744917;81;21124;-88
2022/06/14 12:51:28;;;;;;;2.98;2.05;;;;;;;32.35;28.30;100149.23;1745543;81;21415;-88